Time;durP1;ratioP1;P1;durP2;ratioP2;P2;SDS_P1;SDS_P2;PMS_P1;PMS_P2;Temp;Humidity;BMP_temperature;BMP_pressure;BME280_temperature;BME280_humidity;BME280_pressure;Samples;Min_cycle;Max_cycle;Signal;HPM_P1;HPM_P2
2023/01/05 00:00:29;;;;;;;18.98;3.60;;;;;;;;;;5031219;28;20046;-72
2023/01/05 00:02:55;;;;;;;22.33;4.00;;;;;;;;;;5038196;28;20083;-72
2023/01/05 00:05:21;;;;;;;19.05;4.38;;;;;;;;;;5051370;28;20521;-72
2023/01/05 00:07:47;;;;;;;22.50;4.07;;;;;;;;;;5051741;28;20055;-72
2023/01/05 00:22:29;;;;;;;20.50;4.20;;;;;;;;;;5051800;28;20067;-72
2023/01/05 00:24:01;;;;;;;19.75;4.40;;;;;;;;;;5051138;28;20049;-72
2023/01/05 00:26:27;;;;;;;19.45;3.58;;;;;;;;;;5034453;28;20048;-72
2023/01/05 00:28:53;;;;;;;10.88;2.75;;;;;;;;;;5051097;28;20406;-72
2023/01/05 00:31:19;;;;;;;22.33;4.00;;;;;;;;;;5051996;28;20037;-72
2023/01/05 00:33:45;;;;;;;20.35;4.20;;;;;;;;;;5052990;28;20052;-72
2023/01/05 00:36:11;;;;;;;17.60;3.70;;;;;;;;;;5052185;28;20068;-73
2023/01/05 00:38:37;;;;;;;19.33;3.45;;;;;;;;;;5052415;28;20397;-72
2023/01/05 00:41:03;;;;;;;17.83;3.63;;;;;;;;;;5052045;28;20045;-72
2023/01/05 00:43:29;;;;;;;17.13;3.38;;;;;;;;;;5052578;28;20044;-72
2023/01/05 00:45:55;;;;;;;19.02;4.43;;;;;;;;;;5042648;28;20397;-72
2023/01/05 00:48:21;;;;;;;19.85;4.43;;;;;;;;;;5031673;28;20502;-72
2023/01/05 00:50:49;;;;;;;22.90;4.70;;;;;;;;;;5032400;28;20133;-73
2023/01/05 00:53:15;;;;;;;15.95;3.30;;;;;;;;;;5032534;28;20041;-72
2023/01/05 00:55:41;;;;;;;25.30;4.10;;;;;;;;;;5032501;28;20115;-72
2023/01/05 00:58:07;;;;;;;21.83;4.00;;;;;;;;;;5045599;28;20045;-72
2023/01/05 01:00:33;;;;;;;25.30;4.97;;;;;;;;;;5054661;28;20064;-72
2023/01/05 01:02:59;;;;;;;24.30;4.07;;;;;;;;;;5055205;28;20405;-72
2023/01/05 01:05:25;;;;;;;25.25;4.35;;;;;;;;;;5043889;28;20041;-72
2023/01/05 01:07:52;;;;;;;22.08;4.55;;;;;;;;;;5034949;28;20054;-72
2023/01/05 01:10:18;;;;;;;25.98;4.22;;;;;;;;;;5052051;28;20098;-72
2023/01/05 01:12:44;;;;;;;20.48;3.72;;;;;;;;;;5056048;28;20044;-72
2023/01/05 01:15:10;;;;;;;18.40;3.67;;;;;;;;;;5056087;28;20045;-72
2023/01/05 01:17:36;;;;;;;23.25;4.65;;;;;;;;;;5053237;28;20091;-72
2023/01/05 01:20:02;;;;;;;21.58;4.40;;;;;;;;;;5053456;28;20044;-72
2023/01/05 01:22:28;;;;;;;25.85;4.68;;;;;;;;;;5055396;28;20049;-72
2023/01/05 01:24:54;;;;;;;21.25;4.45;;;;;;;;;;5055451;28;20029;-72
2023/01/05 01:27:20;;;;;;;23.95;4.28;;;;;;;;;;5055586;28;20132;-72
2023/01/05 01:29:47;;;;;;;23.98;4.47;;;;;;;;;;5055411;28;20041;-72
2023/01/05 01:32:13;;;;;;;20.40;4.22;;;;;;;;;;5054253;28;20053;-72
2023/01/05 01:34:39;;;;;;;23.48;4.78;;;;;;;;;;5055082;28;20045;-72
2023/01/05 01:37:05;;;;;;;23.25;4.40;;;;;;;;;;5054539;28;20162;-72
2023/01/05 01:39:31;;;;;;;19.73;3.90;;;;;;;;;;5055425;28;20120;-72
2023/01/05 01:41:57;;;;;;;14.70;3.20;;;;;;;;;;5053511;28;20112;-73
2023/01/05 01:44:42;;;;;;;17.63;3.80;;;;;;;;;;5055293;28;20055;-72
2023/01/05 01:47:10;;;;;;;16.92;3.35;;;;;;;;;;5055025;28;20127;-72
2023/01/05 01:49:36;;;;;;;20.85;3.80;;;;;;;;;;5038919;28;20176;-72
2023/01/05 01:52:02;;;;;;;15.45;3.42;;;;;;;;;;5034406;28;20080;-72
2023/01/05 01:54:28;;;;;;;20.33;3.95;;;;;;;;;;5049309;28;20147;-72
2023/01/05 01:56:55;;;;;;;24.80;4.50;;;;;;;;;;5034005;28;20398;-72
2023/01/05 01:59:22;;;;;;;17.23;3.85;;;;;;;;;;5035261;28;20052;-72
2023/01/05 02:01:49;;;;;;;17.88;3.97;;;;;;;;;;5033770;28;20048;-72
2023/01/05 02:04:15;;;;;;;18.95;3.83;;;;;;;;;;5037410;28;20048;-72
2023/01/05 02:06:41;;;;;;;21.80;4.10;;;;;;;;;;5054521;28;20092;-72
2023/01/05 02:09:07;;;;;;;20.77;4.25;;;;;;;;;;5055554;28;20386;-72
2023/01/05 02:11:52;;;;;;;19.42;3.50;;;;;;;;;;5054610;28;20395;-72
2023/01/05 02:14:42;;;;;;;21.50;4.00;;;;;;;;;;5053765;28;20045;-72
2023/01/05 02:17:17;;;;;;;20.98;3.42;;;;;;;;;;5055233;28;20178;-72
2023/01/05 02:19:43;;;;;;;24.52;4.18;;;;;;;;;;5054611;28;20378;-72
2023/01/05 02:22:09;;;;;;;22.27;3.97;;;;;;;;;;5054359;28;20574;-72
2023/01/05 02:24:48;;;;;;;15.30;3.08;;;;;;;;;;5054425;28;20041;-72
2023/01/05 02:27:25;;;;;;;21.77;3.60;;;;;;;;;;5054410;28;20049;-72
2023/01/05 02:30:11;;;;;;;13.43;3.88;;;;;;;;;;5054067;28;20106;-72
2023/01/05 02:32:37;;;;;;;;;;;;;;;;;;5054596;28;20608;-72
2023/01/05 02:35:06;;;;;;;18.40;3.65;;;;;;;;;;5054071;28;19924;-72
2023/01/05 02:37:36;;;;;;;20.67;4.03;;;;;;;;;;5053112;28;20041;-72
2023/01/05 02:40:06;;;;;;;21.70;4.93;;;;;;;;;;5052257;28;20393;-72
2023/01/05 02:42:34;;;;;;;21.38;4.20;;;;;;;;;;5051715;28;20045;-72
2023/01/05 02:45:05;;;;;;;19.33;3.70;;;;;;;;;;5053746;28;20049;-72
2023/01/05 02:47:44;;;;;;;17.60;3.78;;;;;;;;;;5045775;28;20458;-72
2023/01/05 02:50:10;;;;;;;22.33;4.13;;;;;;;;;;5034408;28;20389;-73
2023/01/05 02:52:46;;;;;;;17.60;3.90;;;;;;;;;;5034271;28;20099;-72
2023/01/05 02:55:14;;;;;;;18.30;3.95;;;;;;;;;;5034273;28;20045;-72
2023/01/05 02:57:47;;;;;;;14.35;3.20;;;;;;;;;;5034461;28;20171;-72
2023/01/05 03:00:16;;;;;;;21.95;3.90;;;;;;;;;;5046553;28;20041;-72
2023/01/05 03:02:44;;;;;;;24.63;4.25;;;;;;;;;;5051142;28;20048;-72
2023/01/05 03:05:13;;;;;;;19.13;4.45;;;;;;;;;;5052527;28;20499;-72
2023/01/05 03:07:41;;;;;;;19.50;4.60;;;;;;;;;;5053859;28;20458;-72
2023/01/05 03:15:43;;;;;;;20.85;4.50;;;;;;;;;;5053605;28;20045;-72
2023/01/05 03:18:10;;;;;;;21.95;4.07;;;;;;;;;;5053338;28;20135;-72
2023/01/05 03:20:39;;;;;;;23.80;4.82;;;;;;;;;;5052894;28;20060;-72
2023/01/05 03:37:50;;;;;;;22.63;4.03;;;;;;;;;;5053095;28;20041;-72
2023/01/05 03:40:20;;;;;;;20.48;3.90;;;;;;;;;;5052647;28;20053;-72
2023/01/05 03:42:46;;;;;;;21.85;3.97;;;;;;;;;;5051297;28;20072;-72
2023/01/05 03:45:12;;;;;;;20.13;3.67;;;;;;;;;;5051650;28;20088;-72
2023/01/05 03:47:38;;;;;;;23.45;4.00;;;;;;;;;;5053003;28;20087;-72
2023/01/05 03:50:05;;;;;;;29.42;4.03;;;;;;;;;;5052893;28;20052;-73
2023/01/05 03:52:31;;;;;;;16.30;3.95;;;;;;;;;;5051784;28;20051;-73
2023/01/05 03:54:57;;;;;;;21.25;4.15;;;;;;;;;;5044915;28;20068;-73
2023/01/05 03:57:23;;;;;;;25.27;4.13;;;;;;;;;;5050695;28;20045;-72
2023/01/05 03:59:49;;;;;;;17.83;3.78;;;;;;;;;;5051793;28;20539;-72
2023/01/05 04:02:15;;;;;;;20.52;3.88;;;;;;;;;;5052503;28;20049;-72
2023/01/05 04:04:41;;;;;;;22.50;4.72;;;;;;;;;;5051182;28;20072;-72
2023/01/05 04:07:07;;;;;;;19.85;3.97;;;;;;;;;;5052704;28;20057;-72
2023/01/05 04:09:33;;;;;;;25.17;4.55;;;;;;;;;;5052517;28;20049;-72
2023/01/05 04:11:59;;;;;;;21.55;3.92;;;;;;;;;;5052462;28;20351;-72
2023/01/05 04:14:25;;;;;;;22.25;4.15;;;;;;;;;;5052502;28;20053;-73
2023/01/05 04:16:52;;;;;;;19.42;4.40;;;;;;;;;;5051143;28;20041;-72
2023/01/05 04:19:18;;;;;;;24.48;4.65;;;;;;;;;;5050118;28;20083;-72
2023/01/05 04:21:44;;;;;;;18.48;4.30;;;;;;;;;;5051926;28;20401;-72
2023/01/05 04:24:10;;;;;;;21.95;4.78;;;;;;;;;;5052851;28;20080;-72
2023/01/05 04:26:38;;;;;;;22.05;4.40;;;;;;;;;;5047534;28;20041;-72
2023/01/05 04:29:04;;;;;;;19.27;4.13;;;;;;;;;;5052194;28;20521;-72
2023/01/05 04:31:30;;;;;;;22.83;4.38;;;;;;;;;;5055432;28;20483;-72
2023/01/05 04:33:56;;;;;;;21.52;4.13;;;;;;;;;;5056482;28;20467;-72
2023/01/05 04:36:22;;;;;;;20.35;3.47;;;;;;;;;;5055929;28;20396;-72
2023/01/05 04:38:48;;;;;;;32.75;4.93;;;;;;;;;;5054629;28;20049;-72
2023/01/05 04:41:14;;;;;;;20.05;3.92;;;;;;;;;;5037751;28;20052;-72
2023/01/05 04:43:40;;;;;;;22.42;4.22;;;;;;;;;;5056656;28;20484;-72
2023/01/05 04:46:06;;;;;;;18.63;4.53;;;;;;;;;;5056566;28;20451;-73
2023/01/05 04:48:32;;;;;;;18.33;3.75;;;;;;;;;;5042879;28;20438;-72
2023/01/05 04:50:58;;;;;;;18.05;3.88;;;;;;;;;;5035217;28;20037;-72
2023/01/05 04:53:24;;;;;;;20.02;4.00;;;;;;;;;;5035147;28;20045;-72
2023/01/05 04:55:51;;;;;;;26.95;4.50;;;;;;;;;;5034857;28;20041;-72
2023/01/05 04:58:18;;;;;;;24.13;4.25;;;;;;;;;;5036570;28;20072;-72
2023/01/05 05:00:44;;;;;;;24.15;3.72;;;;;;;;;;5049017;28;20114;-72
2023/01/05 05:03:10;;;;;;;20.83;4.00;;;;;;;;;;5056422;28;20084;-72
2023/01/05 05:05:36;;;;;;;20.90;4.43;;;;;;;;;;5056129;28;20088;-72
2023/01/05 05:08:02;;;;;;;19.52;3.97;;;;;;;;;;5054062;28;20087;-72
2023/01/05 05:10:28;;;;;;;21.90;3.67;;;;;;;;;;5052686;28;20059;-72
2023/01/05 05:12:54;;;;;;;26.15;4.20;;;;;;;;;;5053518;28;20416;-72
2023/01/05 05:15:20;;;;;;;25.88;4.88;;;;;;;;;;5056017;28;20049;-72
2023/01/05 05:17:47;;;;;;;19.52;3.90;;;;;;;;;;5056150;28;20052;-72
2023/01/05 05:20:13;;;;;;;24.38;3.38;;;;;;;;;;5055865;28;20052;-72
2023/01/05 05:22:39;;;;;;;14.70;2.90;;;;;;;;;;5055519;28;20088;-72
2023/01/05 05:25:05;;;;;;;18.17;3.88;;;;;;;;;;5054977;28;20037;-72
2023/01/05 05:27:31;;;;;;;22.83;4.40;;;;;;;;;;5054144;28;20053;-72
2023/01/05 05:29:57;;;;;;;21.30;4.20;;;;;;;;;;5055312;28;20496;-72
2023/01/05 05:32:24;;;;;;;16.60;4.28;;;;;;;;;;5055266;28;20056;-72
2023/01/05 05:34:50;;;;;;;22.38;4.65;;;;;;;;;;5054290;28;20393;-72
2023/01/05 05:37:16;;;;;;;18.88;4.03;;;;;;;;;;5055529;28;20052;-72
2023/01/05 05:39:42;;;;;;;21.75;4.18;;;;;;;;;;5054937;28;20438;-72
2023/01/05 05:42:08;;;;;;;22.00;3.83;;;;;;;;;;5054016;28;20199;-72
2023/01/05 05:44:34;;;;;;;21.85;4.00;;;;;;;;;;5053205;28;20395;-72
2023/01/05 05:47:00;;;;;;;20.63;3.55;;;;;;;;;;5053972;28;20056;-72
2023/01/05 05:49:26;;;;;;;21.88;3.80;;;;;;;;;;5055043;28;20155;-72
2023/01/05 05:51:52;;;;;;;28.02;4.72;;;;;;;;;;5054553;28;20532;-72
2023/01/05 05:54:18;;;;;;;22.10;4.35;;;;;;;;;;5052154;28;20060;-72
2023/01/05 05:56:44;;;;;;;21.45;4.47;;;;;;;;;;5039057;28;20112;-72
2023/01/05 05:59:10;;;;;;;23.80;4.45;;;;;;;;;;5054726;28;20520;-72
2023/01/05 06:01:36;;;;;;;21.13;4.03;;;;;;;;;;5053375;28;20056;-72
2023/01/05 06:04:02;;;;;;;19.08;4.18;;;;;;;;;;5053222;28;20409;-72
2023/01/05 06:06:28;;;;;;;23.40;4.50;;;;;;;;;;5053251;28;20041;-72
2023/01/05 06:08:54;;;;;;;23.27;3.83;;;;;;;;;;5052181;28;20041;-72
2023/01/05 06:11:20;;;;;;;20.35;4.38;;;;;;;;;;5054220;28;20477;-72
2023/01/05 06:13:47;;;;;;;22.17;3.88;;;;;;;;;;5054590;28;20049;-72
2023/01/05 06:16:13;;;;;;;19.08;4.10;;;;;;;;;;5053246;28;20097;-72
2023/01/05 06:18:39;;;;;;;21.98;3.80;;;;;;;;;;5052584;28;20060;-72
2023/01/05 06:21:05;;;;;;;17.60;3.85;;;;;;;;;;5052097;28;20045;-72
2023/01/05 06:23:31;;;;;;;21.60;4.05;;;;;;;;;;5052658;28;20045;-72
2023/01/05 06:25:58;;;;;;;17.35;3.60;;;;;;;;;;5054277;28;20044;-72
2023/01/05 06:28:24;;;;;;;22.05;4.00;;;;;;;;;;5054215;28;20551;-72
2023/01/05 06:30:50;;;;;;;19.02;3.88;;;;;;;;;;5052781;28;20041;-72
2023/01/05 06:33:16;;;;;;;23.70;4.07;;;;;;;;;;5053018;28;20040;-72
2023/01/05 06:35:42;;;;;;;20.25;3.78;;;;;;;;;;5053303;28;20076;-72
2023/01/05 06:38:09;;;;;;;24.88;3.90;;;;;;;;;;5054228;28;20098;-72
2023/01/05 06:40:35;;;;;;;19.70;4.15;;;;;;;;;;5051738;28;20049;-72
2023/01/05 06:43:01;;;;;;;24.95;4.32;;;;;;;;;;5053808;28;20102;-72
2023/01/05 06:45:27;;;;;;;25.52;4.45;;;;;;;;;;5053659;28;20045;-72
2023/01/05 06:47:53;;;;;;;24.15;4.35;;;;;;;;;;5052404;28;20354;-72
2023/01/05 06:50:19;;;;;;;24.08;4.60;;;;;;;;;;5052265;28;20128;-72
2023/01/05 06:52:45;;;;;;;22.63;3.70;;;;;;;;;;5051886;28;20520;-72
2023/01/05 06:55:12;;;;;;;18.42;4.20;;;;;;;;;;5031787;28;20136;-73
2023/01/05 06:57:38;;;;;;;17.08;4.00;;;;;;;;;;5033986;28;20056;-72
2023/01/05 07:00:05;;;;;;;22.33;4.80;;;;;;;;;;5033252;28;20038;-72
2023/01/05 07:02:31;;;;;;;25.70;4.65;;;;;;;;;;5032569;28;20076;-73
2023/01/05 07:04:57;;;;;;;26.02;4.60;;;;;;;;;;5045725;28;20049;-73
2023/01/05 07:07:23;;;;;;;24.35;4.18;;;;;;;;;;5053059;28;20047;-72
2023/01/05 07:09:49;;;;;;;22.80;4.47;;;;;;;;;;5053240;28;20045;-73
2023/01/05 07:12:15;;;;;;;23.55;4.35;;;;;;;;;;5053260;28;20051;-72
2023/01/05 07:14:41;;;;;;;21.25;4.40;;;;;;;;;;5052266;28;20055;-72
2023/01/05 07:17:08;;;;;;;19.73;4.22;;;;;;;;;;5051831;28;20049;-72
2023/01/05 07:19:34;;;;;;;25.02;4.63;;;;;;;;;;5019720;28;20132;-72
2023/01/05 07:22:00;;;;;;;20.30;4.10;;;;;;;;;;5038438;28;20548;-72
2023/01/05 07:24:26;;;;;;;21.25;3.85;;;;;;;;;;5052943;28;20048;-72
2023/01/05 07:26:52;;;;;;;21.35;3.92;;;;;;;;;;5033322;28;20448;-73
2023/01/05 07:29:18;;;;;;;24.20;3.95;;;;;;;;;;5046629;28;20045;-72
2023/01/05 07:31:46;;;;;;;24.52;4.55;;;;;;;;;;5052564;28;20052;-72
2023/01/05 07:34:12;;;;;;;27.23;4.40;;;;;;;;;;5050487;28;20049;-72
2023/01/05 07:36:38;;;;;;;30.20;4.60;;;;;;;;;;5052688;28;20076;-72
2023/01/05 07:39:04;;;;;;;25.33;4.43;;;;;;;;;;5053003;28;20072;-73
2023/01/05 07:41:31;;;;;;;23.30;4.03;;;;;;;;;;5052596;28;20059;-72
2023/01/05 07:43:57;;;;;;;24.92;4.68;;;;;;;;;;5051400;28;20091;-72
2023/01/05 07:46:23;;;;;;;21.20;4.10;;;;;;;;;;5051655;28;20077;-72
2023/01/05 07:48:49;;;;;;;21.25;4.18;;;;;;;;;;5052766;28;20072;-72
2023/01/05 07:51:15;;;;;;;26.25;4.28;;;;;;;;;;5050648;28;20083;-72
2023/01/05 07:53:41;;;;;;;16.52;4.00;;;;;;;;;;5052371;28;20047;-72
2023/01/05 07:56:07;;;;;;;21.48;4.47;;;;;;;;;;5044777;28;20045;-72
2023/01/05 07:58:33;;;;;;;19.77;3.97;;;;;;;;;;5051447;28;20401;-72
2023/01/05 08:01:04;;;;;;;20.00;4.50;;;;;;;;;;5052248;28;20098;-72
2023/01/05 08:03:30;;;;;;;21.23;4.28;;;;;;;;;;5052243;28;20575;-72
2023/01/05 08:05:56;;;;;;;17.95;4.18;;;;;;;;;;5050791;28;20056;-72
2023/01/05 08:08:22;;;;;;;21.73;4.70;;;;;;;;;;5034075;28;20525;-72
2023/01/05 08:10:48;;;;;;;15.95;3.85;;;;;;;;;;5032808;28;20045;-72
2023/01/05 08:15:59;;;;;;;20.02;3.72;;;;;;;;;;5050661;28;20057;-72
2023/01/05 08:18:26;;;;;;;22.83;4.03;;;;;;;;;;5052123;28;20051;-71
2023/01/05 08:20:56;;;;;;;19.90;4.30;;;;;;;;;;5050948;28;20049;-72
2023/01/05 08:23:24;;;;;;;19.50;3.58;;;;;;;;;;5050809;28;20048;-71
2023/01/05 08:25:50;;;;;;;21.55;3.95;;;;;;;;;;5052024;28;20049;-71
2023/01/05 08:28:16;;;;;;;22.13;3.92;;;;;;;;;;5048551;28;20741;-74
2023/01/05 08:30:42;;;;;;;18.15;3.72;;;;;;;;;;5043155;28;20047;-71
2023/01/05 08:33:08;;;;;;;18.70;3.78;;;;;;;;;;5050967;28;20110;-72
2023/01/05 08:35:34;;;;;;;20.75;3.85;;;;;;;;;;5049754;28;20049;-72
2023/01/05 08:38:00;;;;;;;22.85;4.47;;;;;;;;;;5038042;28;20077;-72
2023/01/05 08:40:26;;;;;;;22.58;4.05;;;;;;;;;;5050129;28;20036;-72
2023/01/05 08:42:52;;;;;;;19.75;4.03;;;;;;;;;;5050236;28;20052;-72
2023/01/05 08:45:19;;;;;;;21.88;4.40;;;;;;;;;;5050448;28;20057;-72
2023/01/05 08:47:45;;;;;;;24.20;4.03;;;;;;;;;;5051400;28;20114;-72
2023/01/05 08:50:11;;;;;;;16.38;3.45;;;;;;;;;;5050841;28;20049;-72
2023/01/05 08:52:38;;;;;;;19.95;4.35;;;;;;;;;;5034279;28;20049;-71
2023/01/05 08:55:04;;;;;;;22.45;4.60;;;;;;;;;;5043823;28;20067;-71
2023/01/05 08:57:30;;;;;;;21.83;4.78;;;;;;;;;;5051693;28;20052;-72
2023/01/05 08:59:56;;;;;;;26.02;4.30;;;;;;;;;;5050846;28;20041;-72
2023/01/05 09:02:22;;;;;;;26.60;4.68;;;;;;;;;;5040930;28;20103;-72
2023/01/05 09:04:49;;;;;;;23.73;4.50;;;;;;;;;;5030710;28;20208;-72
2023/01/05 09:07:15;;;;;;;28.08;4.97;;;;;;;;;;5030131;28;20046;-72
2023/01/05 09:09:41;;;;;;;19.92;4.88;;;;;;;;;;5029841;28;20060;-72
2023/01/05 09:12:07;;;;;;;28.48;4.18;;;;;;;;;;5029298;28;20042;-71
2023/01/05 09:14:33;;;;;;;20.20;4.32;;;;;;;;;;5042123;28;20072;-72
2023/01/05 09:16:59;;;;;;;24.90;4.47;;;;;;;;;;5051637;28;20106;-71
2023/01/05 09:19:25;;;;;;;27.67;5.38;;;;;;;;;;5053815;28;20041;-72
2023/01/05 09:21:52;;;;;;;20.88;4.15;;;;;;;;;;5055376;28;20128;-72
2023/01/05 09:24:18;;;;;;;25.38;4.60;;;;;;;;;;5055573;28;20128;-72
2023/01/05 09:26:44;;;;;;;21.10;4.35;;;;;;;;;;5053193;28;20068;-72
2023/01/05 09:29:11;;;;;;;23.33;4.03;;;;;;;;;;5055509;28;20051;-72
2023/01/05 09:31:38;;;;;;;27.50;3.58;;;;;;;;;;5055059;28;20098;-72
2023/01/05 09:34:04;;;;;;;22.92;3.90;;;;;;;;;;5054912;28;20049;-72
2023/01/05 09:36:31;;;;;;;16.65;4.43;;;;;;;;;;5054822;28;20043;-72
2023/01/05 09:38:57;;;;;;;16.35;3.50;;;;;;;;;;5053703;28;20053;-72
2023/01/05 09:41:29;;;;;;;14.75;3.42;;;;;;;;;;5054872;28;20048;-72
2023/01/05 09:44:00;;;;;;;17.60;3.25;;;;;;;;;;5025249;28;20491;-72
2023/01/05 09:46:32;;;;;;;13.57;2.95;;;;;;;;;;5033473;28;20049;-72
2023/01/05 09:49:00;;;;;;;15.52;3.05;;;;;;;;;;5045131;28;20049;-72
2023/01/05 09:51:27;;;;;;;14.07;2.97;;;;;;;;;;5054615;28;20128;-73
2023/01/05 09:53:53;;;;;;;18.25;3.63;;;;;;;;;;5054958;28;20080;-72
2023/01/05 09:56:26;;;;;;;19.27;3.65;;;;;;;;;;5034207;28;20490;-73
2023/01/05 09:58:52;;;;;;;19.98;3.92;;;;;;;;;;5035143;28;20045;-72
2023/01/05 10:01:19;;;;;;;19.10;3.20;;;;;;;;;;5041935;28;20128;-72
2023/01/05 10:03:51;;;;;;;16.77;3.72;;;;;;;;;;5055182;28;20471;-73
2023/01/05 10:06:26;;;;;;;20.20;3.85;;;;;;;;;;5054254;28;20476;-72
2023/01/05 10:08:52;;;;;;;15.73;3.00;;;;;;;;;;5053338;28;20464;-72
2023/01/05 10:14:10;;;;;;;16.65;2.92;;;;;;;;;;5052978;28;20045;-72
2023/01/05 10:16:36;;;;;;;12.60;3.08;;;;;;;;;;5054479;28;20041;-72
2023/01/05 10:19:03;;;;;;;18.13;3.08;;;;;;;;;;5054539;28;20086;-73
2023/01/05 10:21:44;;;;;;;15.48;3.00;;;;;;;;;;5054209;28;20120;-72
2023/01/05 10:24:13;;;;;;;17.08;3.30;;;;;;;;;;5054153;28;20048;-72
2023/01/05 10:27:02;;;;;;;14.80;3.30;;;;;;;;;;5047710;28;20045;-72
2023/01/05 10:29:34;;;;;;;21.45;3.17;;;;;;;;;;5021026;28;20397;-72
2023/01/05 10:32:00;;;;;;;14.40;3.30;;;;;;;;;;5039197;28;20045;-72
2023/01/05 10:34:35;;;;;;;19.05;3.75;;;;;;;;;;5033485;28;20037;-72
2023/01/05 10:37:20;;;;;;;17.88;3.83;;;;;;;;;;5052128;28;20048;-73
2023/01/05 10:40:05;;;;;;;17.27;3.60;;;;;;;;;;5052740;28;20564;-73
2023/01/05 10:42:45;;;;;;;22.02;3.20;;;;;;;;;;5032471;28;20397;-73
2023/01/05 10:45:12;;;;;;;18.38;3.13;;;;;;;;;;5037736;28;20151;-73
2023/01/05 10:47:39;;;;;;;13.75;2.40;;;;;;;;;;5043191;28;20045;-73
2023/01/05 10:50:37;;;;;;;15.77;2.83;;;;;;;;;;5053777;28;20470;-73
2023/01/05 10:53:12;;;;;;;11.32;2.20;;;;;;;;;;5012505;28;20566;-73
2023/01/05 10:55:46;;;;;;;9.05;2.42;;;;;;;;;;5047176;28;20167;-73
2023/01/05 10:58:29;;;;;;;8.88;2.08;;;;;;;;;;5052199;28;20140;-73
2023/01/05 11:01:14;;;;;;;9.32;2.33;;;;;;;;;;5032252;28;20045;-73
2023/01/05 11:03:42;;;;;;;10.52;2.22;;;;;;;;;;5045411;28;20128;-72
2023/01/05 11:06:08;;;;;;;11.27;2.55;;;;;;;;;;5053262;28;20040;-73
2023/01/05 11:08:35;;;;;;;13.73;2.67;;;;;;;;;;5053359;28;20053;-73
2023/01/05 11:11:03;;;;;;;9.25;2.33;;;;;;;;;;5048980;28;20050;-73
2023/01/05 11:13:32;;;;;;;12.48;2.55;;;;;;;;;;5053283;28;20413;-73
2023/01/05 11:16:15;;;;;;;10.15;2.72;;;;;;;;;;5053179;28;20076;-73
2023/01/05 11:18:41;;;;;;;11.57;2.50;;;;;;;;;;5033532;28;20041;-72
2023/01/05 11:21:12;;;;;;;12.05;2.70;;;;;;;;;;5022215;28;20128;-73
2023/01/05 11:23:48;;;;;;;10.70;2.67;;;;;;;;;;5046745;28;20049;-73
2023/01/05 11:26:17;;;;;;;10.43;2.67;;;;;;;;;;5053210;28;20052;-73
2023/01/05 11:28:57;;;;;;;13.00;2.90;;;;;;;;;;5032326;28;20049;-73
2023/01/05 11:31:25;;;;;;;14.68;3.17;;;;;;;;;;5032353;28;20042;-72
2023/01/05 11:33:58;;;;;;;13.25;3.05;;;;;;;;;;5048742;28;20053;-72
2023/01/05 11:36:24;;;;;;;16.30;3.03;;;;;;;;;;5034883;28;20517;-73
2023/01/05 11:38:55;;;;;;;15.52;2.80;;;;;;;;;;5052610;28;20048;-72
2023/01/05 11:41:21;;;;;;;26.23;4.43;;;;;;;;;;5052625;28;20136;-72
2023/01/05 11:43:48;;;;;;;16.30;3.45;;;;;;;;;;5051563;28;20044;-73
2023/01/05 11:46:16;;;;;;;19.75;3.85;;;;;;;;;;5052985;28;20398;-73
2023/01/05 11:48:50;;;;;;;15.40;3.60;;;;;;;;;;5052866;28;20052;-73
2023/01/05 11:51:35;;;;;;;12.82;2.97;;;;;;;;;;5051462;28;20056;-72
2023/01/05 11:54:01;;;;;;;21.25;3.83;;;;;;;;;;5052455;28;20081;-73
2023/01/05 11:56:27;;;;;;;20.75;3.90;;;;;;;;;;5031189;28;20081;-72
2023/01/05 11:58:54;;;;;;;19.88;3.55;;;;;;;;;;5031641;28;20103;-72
2023/01/05 12:01:39;;;;;;;16.40;3.47;;;;;;;;;;5050608;28;20072;-72
2023/01/05 12:04:05;;;;;;;20.58;3.97;;;;;;;;;;5052678;28;20045;-72
2023/01/05 12:06:43;;;;;;;20.23;3.92;;;;;;;;;;5034138;28;20052;-72
2023/01/05 12:09:15;;;;;;;16.70;3.78;;;;;;;;;;5052479;28;20052;-72
2023/01/05 12:11:57;;;;;;;22.55;3.70;;;;;;;;;;5033603;28;20073;-73
2023/01/05 12:14:33;;;;;;;17.00;3.45;;;;;;;;;;5052235;28;20037;-72
2023/01/05 12:16:59;;;;;;;15.65;3.75;;;;;;;;;;5051546;28;20055;-72
2023/01/05 12:19:38;;;;;;;14.10;3.00;;;;;;;;;;5052161;28;20118;-72
2023/01/05 12:22:21;;;;;;;17.67;3.42;;;;;;;;;;5052387;28;20037;-72
2023/01/05 12:25:00;;;;;;;13.00;3.33;;;;;;;;;;5052554;28;20107;-74
2023/01/05 12:27:38;;;;;;;15.90;2.70;;;;;;;;;;5049911;28;20055;-72
2023/01/05 12:30:10;;;;;;;13.27;2.63;;;;;;;;;;5051202;28;20053;-72
2023/01/05 12:32:45;;;;;;;10.48;2.67;;;;;;;;;;5050509;28;20091;-69
2023/01/05 12:35:11;;;;;;;16.35;3.20;;;;;;;;;;5049217;28;20455;-69
2023/01/05 12:37:45;;;;;;;10.63;2.45;;;;;;;;;;5049254;28;20107;-68
2023/01/05 12:40:17;;;;;;;13.63;2.70;;;;;;;;;;5049480;28;20052;-69
2023/01/05 12:42:57;;;;;;;13.48;3.00;;;;;;;;;;5048567;28;20049;-69
2023/01/05 12:45:26;;;;;;;14.98;2.47;;;;;;;;;;5046385;28;20088;-71
2023/01/05 12:47:55;;;;;;;11.65;2.55;;;;;;;;;;5046519;28;20405;-68
2023/01/05 12:50:24;;;;;;;15.77;2.72;;;;;;;;;;5049017;28;20080;-68
2023/01/05 12:52:54;;;;;;;12.40;3.08;;;;;;;;;;5053425;28;20094;-72
2023/01/05 12:55:25;;;;;;;14.65;3.00;;;;;;;;;;5054976;28;20052;-71
2023/01/05 12:57:56;;;;;;;14.52;2.90;;;;;;;;;;5055646;28;20041;-74
2023/01/05 13:00:24;;;;;;;14.73;3.03;;;;;;;;;;5055445;28;20041;-74
2023/01/05 13:03:04;;;;;;;14.25;3.05;;;;;;;;;;5038515;28;20462;-73
2023/01/05 13:05:35;;;;;;;14.65;3.15;;;;;;;;;;5054682;28;20051;-74
2023/01/05 13:08:16;;;;;;;14.65;3.25;;;;;;;;;;5055698;28;20052;-74
2023/01/05 13:10:42;;;;;;;16.02;3.20;;;;;;;;;;5038157;28;20175;-73
2023/01/05 13:13:13;;;;;;;12.43;2.92;;;;;;;;;;5054519;28;20045;-74
2023/01/05 13:15:42;;;;;;;18.38;3.97;;;;;;;;;;5055604;28;20048;-74
2023/01/05 13:18:12;;;;;;;11.98;3.28;;;;;;;;;;5054401;28;20045;-73
2023/01/05 13:20:41;;;;;;;14.50;2.83;;;;;;;;;;5055504;28;20099;-74
2023/01/05 13:23:17;;;;;;;13.10;3.35;;;;;;;;;;5054866;28;20619;-74
2023/01/05 13:25:55;;;;;;;12.05;3.13;;;;;;;;;;5051847;28;20051;-73
2023/01/05 13:28:22;;;;;;;14.50;3.00;;;;;;;;;;5055499;28;20692;-74
2023/01/05 13:31:03;;;;;;;15.38;3.03;;;;;;;;;;5053901;28;20053;-73
2023/01/05 13:33:35;;;;;;;14.02;3.22;;;;;;;;;;5055210;28;20512;-74
2023/01/05 13:36:10;;;;;;;18.45;3.90;;;;;;;;;;5053966;28;20076;-74
2023/01/05 13:38:55;;;;;;;14.32;3.40;;;;;;;;;;5055468;28;20072;-73
2023/01/05 13:41:33;;;;;;;15.68;3.33;;;;;;;;;;5053969;28;20092;-74
2023/01/05 13:44:17;;;;;;;16.38;4.03;;;;;;;;;;5055475;28;20051;-73
2023/01/05 13:47:02;;;;;;;15.52;3.67;;;;;;;;;;5053910;28;20052;-74
2023/01/05 13:49:28;;;;;;;14.30;3.50;;;;;;;;;;5053926;28;20051;-74
2023/01/05 13:51:56;;;;;;;18.05;3.20;;;;;;;;;;5053748;28;20128;-73
2023/01/05 13:54:22;;;;;;;18.27;4.10;;;;;;;;;;5053403;28;20044;-73
2023/01/05 13:56:49;;;;;;;21.95;3.63;;;;;;;;;;5053787;28;20651;-73
2023/01/05 13:59:32;;;;;;;13.90;3.03;;;;;;;;;;5053926;28;20052;-74
2023/01/05 14:01:59;;;;;;;19.90;3.72;;;;;;;;;;5053956;28;20045;-74
2023/01/05 14:04:27;;;;;;;16.23;3.47;;;;;;;;;;5053509;28;20049;-73
2023/01/05 14:06:55;;;;;;;18.25;4.57;;;;;;;;;;5053509;28;20053;-73
2023/01/05 14:09:26;;;;;;;19.48;3.90;;;;;;;;;;5054883;28;20061;-73
2023/01/05 14:12:08;;;;;;;15.25;3.60;;;;;;;;;;5053253;28;20053;-74
2023/01/05 14:14:53;;;;;;;21.55;4.20;;;;;;;;;;5036775;28;20091;-73
2023/01/05 14:17:38;;;;;;;18.20;4.43;;;;;;;;;;5054880;28;20052;-73
2023/01/05 14:20:07;;;;;;;15.50;3.70;;;;;;;;;;5054569;28;20494;-73
2023/01/05 14:22:35;;;;;;;23.38;4.55;;;;;;;;;;5036761;28;20394;-73
2023/01/05 14:25:27;;;;;;;21.15;3.58;;;;;;;;;;5054397;28;20405;-74
2023/01/05 14:28:11;;;;;;;16.52;3.72;;;;;;;;;;5054320;28;20157;-73
2023/01/05 14:30:37;;;;;;;17.85;3.42;;;;;;;;;;5054016;28;20409;-74
2023/01/05 14:33:05;;;;;;;17.83;3.47;;;;;;;;;;5054410;28;20044;-73
2023/01/05 14:35:33;;;;;;;21.25;3.85;;;;;;;;;;5052963;28;20099;-73
2023/01/05 14:38:22;;;;;;;19.73;3.90;;;;;;;;;;5053183;28;20060;-74
2023/01/05 14:40:54;;;;;;;18.13;3.60;;;;;;;;;;5034128;28;20099;-74
2023/01/05 14:43:20;;;;;;;14.63;3.70;;;;;;;;;;5054084;28;20111;-74
2023/01/05 14:46:02;;;;;;;21.55;4.25;;;;;;;;;;5054109;28;20045;-73
2023/01/05 14:48:38;;;;;;;22.90;4.25;;;;;;;;;;5054480;28;20044;-73
2023/01/05 14:51:15;;;;;;;19.20;4.40;;;;;;;;;;5054115;28;20138;-73
2023/01/05 14:53:43;;;;;;;20.70;4.22;;;;;;;;;;5053821;28;20110;-73
2023/01/05 14:56:09;;;;;;;21.67;4.50;;;;;;;;;;5034414;28;20045;-73
2023/01/05 14:58:35;;;;;;;16.42;3.95;;;;;;;;;;5033849;28;20509;-74
2023/01/05 15:01:13;;;;;;;28.20;4.75;;;;;;;;;;5031998;28;20444;-73
2023/01/05 15:03:46;;;;;;;21.77;4.40;;;;;;;;;;5030018;28;20455;-73
2023/01/05 15:06:17;;;;;;;19.77;3.90;;;;;;;;;;5029650;28;20049;-74
2023/01/05 15:08:43;;;;;;;17.05;4.90;;;;;;;;;;5031433;28;20057;-74
2023/01/05 15:11:28;;;;;;;16.35;4.05;;;;;;;;;;5032069;28;20049;-73
2023/01/05 15:16:57;;;;;;;27.45;4.45;;;;;;;;;;5033551;28;20053;-74
2023/01/05 15:19:34;;;;;;;15.20;3.88;;;;;;;;;;5032449;28;20046;-74
2023/01/05 15:22:18;;;;;;;20.92;4.00;;;;;;;;;;5033397;28;20132;-73